Time;durP1;ratioP1;P1;durP2;ratioP2;P2;SDS_P1;SDS_P2;PMS_P1;PMS_P2;Temp;Humidity;BMP_temperature;BMP_pressure;BME280_temperature;BME280_humidity;BME280_pressure;Samples;Min_cycle;Max_cycle;Signal;HPM_P1;HPM_P2
2023/05/30 00:02:11;;;;;;;11.60;2.97;;;12.30;91.10;;;;;;5078420;28;20032;-83
2023/05/30 00:04:39;;;;;;;8.68;2.97;;;12.20;91.20;;;;;;5096386;28;20111;-84
2023/05/30 00:07:05;;;;;;;11.57;3.47;;;12.20;91.20;;;;;;5096902;28;20117;-84
2023/05/30 00:09:31;;;;;;;10.32;2.65;;;12.20;91.40;;;;;;5078249;28;20066;-83
2023/05/30 00:11:57;;;;;;;12.52;3.38;;;12.20;91.40;;;;;;5095544;28;20051;-84
2023/05/30 00:14:26;;;;;;;11.07;2.83;;;12.20;91.50;;;;;;5081667;28;20028;-83
2023/05/30 00:16:52;;;;;;;13.25;3.17;;;12.10;91.60;;;;;;5116763;28;20485;-84
2023/05/30 00:19:19;;;;;;;11.20;3.15;;;12.10;91.60;;;;;;5097894;28;20479;-84
2023/05/30 00:21:45;;;;;;;10.35;3.25;;;12.00;91.70;;;;;;5081553;28;20028;-84
2023/05/30 00:24:12;;;;;;;13.50;2.88;;;12.00;91.80;;;;;;5116634;28;20196;-83
2023/05/30 00:26:37;;;;;;;10.68;2.80;;;12.00;91.80;;;;;;5081382;28;20502;-84
2023/05/30 00:29:03;;;;;;;7.68;2.50;;;12.00;91.80;;;;;;5068022;28;20039;-83
2023/05/30 00:31:30;;;;;;;11.07;3.17;;;12.00;91.70;;;;;;5094629;28;20040;-83
2023/05/30 00:33:56;;;;;;;10.02;2.70;;;12.10;91.80;;;;;;5078496;28;20030;-84
2023/05/30 00:36:21;;;;;;;9.70;2.80;;;12.00;91.80;;;;;;5103866;28;20115;-83
2023/05/30 00:38:47;;;;;;;11.10;2.70;;;12.00;91.90;;;;;;5116313;28;20483;-84
2023/05/30 00:41:13;;;;;;;9.45;2.85;;;11.90;92.00;;;;;;5081193;28;20039;-83
2023/05/30 00:43:38;;;;;;;11.35;2.80;;;11.90;92.00;;;;;;5098394;28;20426;-83
2023/05/30 00:46:04;;;;;;;16.38;4.07;;;12.00;92.00;;;;;;5098702;28;20023;-84
2023/05/30 00:48:30;;;;;;;11.95;2.85;;;11.90;92.30;;;;;;5093434;28;20056;-83
2023/05/30 00:50:56;;;;;;;13.07;2.95;;;11.90;92.10;;;;;;5095059;28;20028;-84
2023/05/30 00:53:23;;;;;;;11.13;3.40;;;11.90;92.20;;;;;;5094637;28;20024;-83
2023/05/30 00:55:49;;;;;;;9.77;2.70;;;11.80;92.30;;;;;;5095037;28;20016;-83
2023/05/30 00:58:16;;;;;;;13.00;3.15;;;11.80;92.40;;;;;;5084598;28;20087;-84
2023/05/30 01:00:45;;;;;;;8.73;3.25;;;11.80;92.50;;;;;;5119277;28;20016;-85
2023/05/30 01:03:12;;;;;;;7.72;2.85;;;11.80;92.50;;;;;;5103384;28;20042;-86
2023/05/30 01:05:39;;;;;;;9.80;3.03;;;11.70;92.60;;;;;;5103353;28;20028;-85
2023/05/30 01:08:05;;;;;;;8.45;2.50;;;11.70;92.50;;;;;;5103098;28;20028;-85
2023/05/30 01:10:31;;;;;;;12.70;3.22;;;11.70;92.60;;;;;;5104765;28;20024;-85
2023/05/30 01:13:34;;;;;;;13.32;3.20;;;11.70;92.70;;;;;;5096527;28;20111;-86
2023/05/30 01:16:16;;;;;;;12.68;3.70;;;11.70;92.80;;;;;;5096000;28;20061;-86
2023/05/30 01:19:26;;;;;;;11.07;3.30;;;11.70;92.70;;;;;;5096069;28;20433;-86
2023/05/30 01:22:12;;;;;;;9.13;3.03;;;11.80;92.80;;;;;;5077304;28;20495;-86
2023/05/30 01:24:44;;;;;;;9.45;3.45;;;11.80;92.70;;;;;;5096136;28;20073;-86
2023/05/30 01:27:36;;;;;;;10.38;3.13;;;11.80;92.80;;;;;;5096478;28;20150;-86
2023/05/30 01:30:02;;;;;;;;;;;11.70;92.80;;;;;;5096125;28;20050;-85
2023/05/30 01:32:28;;;;;;;15.13;3.40;;;11.70;92.90;;;;;;5096506;28;19904;-87
2023/05/30 01:34:57;;;;;;;13.48;3.58;;;11.70;92.90;;;;;;5096892;28;20028;-86
2023/05/30 01:37:23;;;;;;;19.65;3.53;;;11.70;92.90;;;;;;5095571;28;20443;-88
2023/05/30 01:39:48;;;;;;;10.52;3.00;;;11.70;93.00;;;;;;5078423;28;20122;-86
2023/05/30 01:42:21;;;;;;;15.02;3.47;;;11.70;93.00;;;;;;5078432;28;20115;-87
2023/05/30 01:45:13;;;;;;;11.60;3.25;;;11.70;93.00;;;;;;5095587;28;20024;-87
2023/05/30 01:48:00;;;;;;;11.43;3.38;;;11.60;93.00;;;;;;5097099;28;20070;-87
2023/05/30 01:50:37;;;;;;;12.57;3.28;;;11.70;93.00;;;;;;5098970;28;20027;-87
2023/05/30 01:53:07;;;;;;;8.90;3.00;;;11.70;93.00;;;;;;5098759;28;20110;-87
2023/05/30 01:55:35;;;;;;;11.80;3.80;;;11.70;93.00;;;;;;5099055;28;20030;-87
2023/05/30 01:58:03;;;;;;;13.63;3.60;;;11.70;93.00;;;;;;5098411;28;20055;-87
2023/05/30 02:00:30;;;;;;;13.65;3.63;;;11.70;93.00;;;;;;5097783;28;20098;-86
2023/05/30 02:02:56;;;;;;;12.55;3.50;;;11.60;93.10;;;;;;5065372;28;20371;-87
2023/05/30 02:05:22;;;;;;;10.73;3.30;;;11.60;93.20;;;;;;5081992;28;20023;-85
2023/05/30 02:07:47;;;;;;;9.25;2.75;;;11.70;93.20;;;;;;5065579;28;20497;-86
2023/05/30 02:10:13;;;;;;;13.50;3.58;;;11.70;93.20;;;;;;5082147;28;20093;-87
2023/05/30 02:12:38;;;;;;;9.68;3.10;;;11.80;93.20;;;;;;5116365;28;20031;-87
2023/05/30 02:15:05;;;;;;;17.83;3.70;;;11.80;93.20;;;;;;5064905;28;20028;-87
2023/05/30 02:17:30;;;;;;;12.05;3.50;;;11.80;93.30;;;;;;5098026;28;20035;-88
2023/05/30 02:19:57;;;;;;;9.85;3.63;;;11.70;93.40;;;;;;5081374;28;20059;-86
2023/05/30 02:22:26;;;;;;;9.93;3.60;;;11.70;93.50;;;;;;5081580;28;20043;-84
2023/05/30 02:24:52;;;;;;;11.15;3.13;;;11.60;93.50;;;;;;5081183;28;20383;-86
2023/05/30 02:27:17;;;;;;;15.80;3.60;;;11.70;93.50;;;;;;5081177;28;20024;-87
2023/05/30 02:29:43;;;;;;;16.50;3.55;;;11.70;93.50;;;;;;5098588;28;20620;-87
2023/05/30 02:32:09;;;;;;;9.95;3.42;;;11.80;93.50;;;;;;5081249;28;20028;-85
2023/05/30 02:34:35;;;;;;;14.05;3.80;;;11.80;93.50;;;;;;5120612;28;20032;-83
2023/05/30 02:37:00;;;;;;;12.75;3.50;;;11.70;93.60;;;;;;5122188;28;20011;-87
2023/05/30 02:39:26;;;;;;;14.38;3.80;;;11.70;93.70;;;;;;5104960;27;20035;-83
2023/05/30 02:41:51;;;;;;;14.85;4.07;;;11.70;93.80;;;;;;5104825;28;20022;-86
2023/05/30 02:44:17;;;;;;;12.55;3.15;;;11.70;93.80;;;;;;5116632;28;20483;-87
2023/05/30 02:46:43;;;;;;;8.93;3.15;;;11.70;93.80;;;;;;5083258;28;20056;-87
2023/05/30 02:49:08;;;;;;;10.27;2.85;;;11.80;93.70;;;;;;5080264;28;20441;-87
2023/05/30 02:51:35;;;;;;;9.35;3.53;;;11.90;93.70;;;;;;5114873;28;20023;-87
2023/05/30 02:54:01;;;;;;;11.88;3.85;;;11.90;93.70;;;;;;5097116;28;20019;-87
2023/05/30 02:56:27;;;;;;;11.02;3.65;;;11.90;93.70;;;;;;5097053;28;20068;-85
2023/05/30 02:58:54;;;;;;;11.35;3.85;;;11.90;93.80;;;;;;5080876;28;20070;-88
2023/05/30 03:01:20;;;;;;;9.35;3.08;;;11.90;93.80;;;;;;5097615;28;20127;-86
2023/05/30 03:03:47;;;;;;;11.10;3.30;;;11.80;93.80;;;;;;5115568;28;20061;-87
2023/05/30 03:06:13;;;;;;;12.52;3.65;;;11.90;93.90;;;;;;5097246;28;20027;-87
2023/05/30 03:08:40;;;;;;;8.40;3.53;;;11.90;93.80;;;;;;5080621;28;20031;-86
2023/05/30 03:11:06;;;;;;;11.50;3.30;;;11.90;93.80;;;;;;5096894;28;20024;-86
2023/05/30 03:13:31;;;;;;;12.00;3.10;;;11.90;93.80;;;;;;5063761;28;20019;-87
2023/05/30 03:15:57;;;;;;;14.93;4.05;;;11.90;93.90;;;;;;5080118;28;20027;-86
2023/05/30 03:18:23;;;;;;;12.75;4.18;;;11.90;93.90;;;;;;5096961;28;20382;-87
2023/05/30 03:20:48;;;;;;;13.15;3.78;;;11.90;93.90;;;;;;5080210;28;20412;-86
2023/05/30 03:23:14;;;;;;;12.73;3.72;;;11.90;94.00;;;;;;5097024;28;20099;-86
2023/05/30 03:25:39;;;;;;;12.50;3.75;;;11.90;94.10;;;;;;5096862;28;20052;-87
2023/05/30 03:28:06;;;;;;;14.20;4.03;;;11.80;94.10;;;;;;5115072;28;20059;-87
2023/05/30 03:30:34;;;;;;;13.32;3.92;;;11.80;94.20;;;;;;5115241;28;20026;-87
2023/05/30 03:33:00;;;;;;;11.52;3.97;;;11.70;94.20;;;;;;5115377;28;20028;-86
2023/05/30 03:35:26;;;;;;;13.07;3.60;;;11.80;94.30;;;;;;5081582;28;20520;-86
2023/05/30 03:37:52;;;;;;;11.07;3.60;;;11.80;94.20;;;;;;5081355;28;20027;-87
2023/05/30 03:40:18;;;;;;;9.40;3.80;;;11.90;94.20;;;;;;5122364;28;20028;-87
2023/05/30 03:42:44;;;;;;;8.48;3.90;;;11.90;94.10;;;;;;5105192;28;20035;-86
2023/05/30 03:45:10;;;;;;;10.23;3.17;;;11.90;94.20;;;;;;5083673;28;20028;-87
2023/05/30 03:47:36;;;;;;;8.38;3.40;;;11.90;94.20;;;;;;5099039;28;20109;-85
2023/05/30 03:50:02;;;;;;;10.05;3.42;;;11.90;94.10;;;;;;5115080;28;20056;-82
2023/05/30 03:52:28;;;;;;;13.30;4.05;;;12.00;94.10;;;;;;5116068;28;20015;-83
2023/05/30 03:54:54;;;;;;;9.07;3.60;;;12.00;94.10;;;;;;5117542;28;20028;-82
2023/05/30 03:57:20;;;;;;;8.82;3.40;;;12.10;94.10;;;;;;5113859;28;20024;-84
2023/05/30 03:59:46;;;;;;;12.40;3.67;;;12.00;94.00;;;;;;5061836;28;20460;-86
2023/05/30 04:02:15;;;;;;;8.30;3.35;;;12.10;94.00;;;;;;5077187;28;20488;-87
2023/05/30 04:04:40;;;;;;;9.93;3.85;;;12.20;94.00;;;;;;5093988;28;20027;-86
2023/05/30 04:07:07;;;;;;;10.70;3.38;;;12.20;93.90;;;;;;5061676;28;20024;-86
2023/05/30 04:09:32;;;;;;;10.00;3.78;;;12.20;93.90;;;;;;5079115;28;20100;-88
2023/05/30 04:11:58;;;;;;;10.50;3.30;;;12.20;93.90;;;;;;5116224;28;20043;-84
2023/05/30 04:14:24;;;;;;;11.32;3.33;;;12.20;94.00;;;;;;5083692;28;20050;-86
2023/05/30 04:16:52;;;;;;;8.13;3.55;;;12.30;94.00;;;;;;5116339;28;20016;-87
2023/05/30 04:19:17;;;;;;;11.68;4.03;;;12.30;93.90;;;;;;5082728;28;20027;-84
2023/05/30 04:21:43;;;;;;;12.77;3.53;;;12.30;94.00;;;;;;5098604;28;20055;-85
2023/05/30 04:24:09;;;;;;;10.65;3.35;;;12.30;93.90;;;;;;5094167;28;20028;-86
2023/05/30 04:26:36;;;;;;;11.32;3.92;;;12.30;93.90;;;;;;5063350;28;20388;-86
2023/05/30 04:29:02;;;;;;;8.93;3.15;;;12.30;93.90;;;;;;5097708;28;20028;-86
2023/05/30 04:31:28;;;;;;;9.05;3.22;;;12.30;93.90;;;;;;5080931;28;20476;-86
2023/05/30 04:33:55;;;;;;;8.65;3.65;;;12.40;93.90;;;;;;5079537;28;20024;-86
2023/05/30 04:36:20;;;;;;;13.52;4.28;;;12.40;93.80;;;;;;5097014;28;20420;-86
2023/05/30 04:38:51;;;;;;;7.68;3.75;;;12.40;93.80;;;;;;5078984;28;20115;-86
2023/05/30 04:41:20;;;;;;;10.73;4.20;;;12.40;93.80;;;;;;5095915;28;20028;-84
2023/05/30 04:43:52;;;;;;;8.68;3.78;;;12.40;93.70;;;;;;5097400;28;20107;-86
2023/05/30 04:46:23;;;;;;;8.45;3.38;;;12.40;93.70;;;;;;5095889;28;20028;-86
2023/05/30 04:48:53;;;;;;;;;;;12.40;93.70;;;;;;5079509;28;20495;-85
2023/05/30 04:51:23;;;;;;;10.05;3.67;;;12.50;93.70;;;;;;5095976;28;19947;-86
2023/05/30 04:53:50;;;;;;;9.38;3.97;;;12.50;93.70;;;;;;5095571;28;20527;-85
2023/05/30 04:56:16;;;;;;;8.95;3.65;;;12.60;93.60;;;;;;5095724;28;20460;-85
2023/05/30 04:58:45;;;;;;;8.13;3.72;;;12.60;93.60;;;;;;5097044;28;20054;-85
2023/05/30 05:01:10;;;;;;;9.68;4.18;;;12.70;93.50;;;;;;5095834;28;20028;-86
2023/05/30 05:03:40;;;;;;;8.23;3.80;;;12.70;93.50;;;;;;5096241;28;20653;-89
2023/05/30 05:06:07;;;;;;;12.15;4.35;;;12.70;93.40;;;;;;5079275;28;20031;-90
2023/05/30 05:08:36;;;;;;;10.23;4.40;;;12.60;93.30;;;;;;5097501;28;20032;-88
2023/05/30 05:11:03;;;;;;;10.82;4.45;;;12.60;93.40;;;;;;5096732;28;20030;-86
2023/05/30 05:13:29;;;;;;;12.95;4.32;;;12.50;93.40;;;;;;5079310;28;20430;-88
2023/05/30 05:15:55;;;;;;;11.63;4.50;;;12.50;93.40;;;;;;5079500;28;20036;-87
2023/05/30 05:18:21;;;;;;;13.07;4.43;;;12.40;93.40;;;;;;5096026;28;20027;-88
2023/05/30 05:20:47;;;;;;;11.32;4.15;;;12.40;93.50;;;;;;5095173;28;20027;-87
2023/05/30 05:23:13;;;;;;;8.70;3.92;;;12.30;93.60;;;;;;5061348;28;20016;-86
2023/05/30 05:25:39;;;;;;;8.93;4.05;;;12.40;93.60;;;;;;5078050;28;20060;-86
2023/05/30 05:28:05;;;;;;;8.38;3.60;;;12.50;93.60;;;;;;5061382;28;20036;-86
2023/05/30 05:30:31;;;;;;;9.80;3.78;;;12.50;93.50;;;;;;5094770;28;20020;-86
2023/05/30 05:32:56;;;;;;;10.35;4.22;;;12.50;93.50;;;;;;5094362;28;20024;-86
2023/05/30 05:35:22;;;;;;;11.18;3.70;;;12.50;93.50;;;;;;5094308;28;20020;-87
2023/05/30 05:37:48;;;;;;;12.63;3.92;;;12.60;93.50;;;;;;5078198;28;20028;-87
2023/05/30 05:40:14;;;;;;;10.82;4.25;;;12.60;93.50;;;;;;5080165;28;20039;-86
2023/05/30 05:42:40;;;;;;;7.15;3.47;;;12.70;93.40;;;;;;5095778;28;20016;-86
2023/05/30 05:45:06;;;;;;;6.68;3.70;;;12.70;93.40;;;;;;5097129;28;20035;-87
2023/05/30 05:47:32;;;;;;;10.23;3.65;;;12.70;93.30;;;;;;5111964;28;20035;-85
2023/05/30 05:49:58;;;;;;;6.75;3.85;;;12.80;93.30;;;;;;5085652;28;20054;-85
2023/05/30 05:52:25;;;;;;;8.85;4.32;;;12.80;93.20;;;;;;5102282;28;20012;-88
2023/05/30 05:54:51;;;;;;;10.63;3.60;;;12.80;93.10;;;;;;5118682;28;20034;-88
2023/05/30 05:57:16;;;;;;;10.88;3.80;;;12.80;93.10;;;;;;5088612;28;20032;-87
2023/05/30 05:59:42;;;;;;;7.80;3.53;;;12.80;93.10;;;;;;5079734;28;20061;-87
2023/05/30 06:02:08;;;;;;;10.25;3.70;;;12.80;93.10;;;;;;5095456;28;20055;-87
2023/05/30 06:04:33;;;;;;;9.20;4.13;;;12.80;93.00;;;;;;5077775;28;20107;-90
2023/05/30 06:07:05;;;;;;;7.78;3.75;;;12.90;93.00;;;;;;5078956;28;20107;-87
2023/05/30 06:09:31;;;;;;;8.93;4.10;;;12.90;93.00;;;;;;5061715;28;20024;-87
2023/05/30 06:11:59;;;;;;;7.72;3.83;;;12.90;92.90;;;;;;5078514;28;20028;-86
2023/05/30 06:14:25;;;;;;;7.78;3.92;;;12.90;93.20;;;;;;5079895;28;20066;-87
2023/05/30 06:16:51;;;;;;;10.63;4.03;;;13.00;93.00;;;;;;5095360;28;20189;-86
2023/05/30 06:19:19;;;;;;;7.40;3.55;;;13.00;92.90;;;;;;5061752;28;20070;-87
2023/05/30 06:21:45;;;;;;;10.63;3.50;;;13.10;92.90;;;;;;5078190;28;20028;-87
2023/05/30 06:24:14;;;;;;;7.13;3.40;;;13.20;92.90;;;;;;5093847;28;20085;-88
2023/05/30 06:26:39;;;;;;;9.07;3.60;;;13.20;92.80;;;;;;5077642;28;20115;-89
2023/05/30 06:29:05;;;;;;;6.90;3.42;;;13.30;92.70;;;;;;5060952;28;20452;-87
2023/05/30 06:31:33;;;;;;;6.85;3.40;;;13.30;92.70;;;;;;5061244;28;20058;-87
2023/05/30 06:33:58;;;;;;;8.15;3.80;;;13.40;93.00;;;;;;5078038;28;20022;-87
2023/05/30 06:36:24;;;;;;;10.05;3.63;;;13.50;92.50;;;;;;5078171;28;20093;-88
2023/05/30 06:38:51;;;;;;;10.02;3.92;;;13.40;92.50;;;;;;5094591;28;20391;-86
2023/05/30 06:41:16;;;;;;;6.78;3.33;;;13.50;92.50;;;;;;5078186;28;20043;-88
2023/05/30 06:43:42;;;;;;;10.32;3.95;;;13.50;92.50;;;;;;5060898;28;20020;-88
2023/05/30 06:46:08;;;;;;;8.07;3.22;;;13.50;92.40;;;;;;5060821;28;20032;-89
2023/05/30 06:48:33;;;;;;;13.27;3.88;;;13.50;92.40;;;;;;5094352;28;20048;-88
2023/05/30 06:51:01;;;;;;;9.77;3.50;;;13.50;92.20;;;;;;5094548;28;20105;-89
2023/05/30 06:53:27;;;;;;;10.05;4.40;;;13.50;92.10;;;;;;5095590;28;20028;-87
2023/05/30 06:55:52;;;;;;;9.63;4.10;;;13.40;92.20;;;;;;5102614;28;20030;-86
2023/05/30 06:58:18;;;;;;;10.25;4.05;;;13.50;92.20;;;;;;5064186;28;20028;-88
2023/05/30 07:00:44;;;;;;;9.02;4.13;;;13.50;92.20;;;;;;5080410;28;20454;-84
2023/05/30 07:03:10;;;;;;;9.43;3.78;;;13.40;92.00;;;;;;5100199;28;20039;-86
2023/05/30 07:05:39;;;;;;;10.88;3.78;;;13.40;92.00;;;;;;5115316;28;20024;-84
2023/05/30 07:08:05;;;;;;;10.75;3.97;;;13.40;92.10;;;;;;5099093;28;20032;-83
2023/05/30 07:10:31;;;;;;;10.63;4.40;;;13.40;92.10;;;;;;5117258;28;20010;-87
2023/05/30 07:12:56;;;;;;;9.75;4.07;;;13.40;92.00;;;;;;5098838;28;20077;-88
2023/05/30 07:15:22;;;;;;;9.57;4.25;;;13.40;92.30;;;;;;5079415;28;20055;-87
2023/05/30 07:17:48;;;;;;;10.10;4.60;;;13.40;92.10;;;;;;5078629;28;20039;-87
2023/05/30 07:20:14;;;;;;;11.80;3.92;;;13.40;91.90;;;;;;5061258;28;20407;-88
2023/05/30 07:22:40;;;;;;;8.25;3.92;;;13.40;91.80;;;;;;5078198;28;20020;-88
2023/05/30 07:25:06;;;;;;;7.97;3.58;;;13.40;91.80;;;;;;5108505;28;20012;-87
2023/05/30 07:27:32;;;;;;;8.05;3.80;;;13.50;91.80;;;;;;5117899;28;20012;-86
2023/05/30 07:29:59;;;;;;;7.63;3.70;;;13.50;91.80;;;;;;5118105;28;20015;-85
2023/05/30 07:32:24;;;;;;;8.73;4.00;;;13.60;91.80;;;;;;5084359;28;20056;-86
2023/05/30 07:34:50;;;;;;;8.85;3.95;;;13.70;91.70;;;;;;5092262;28;20055;-87
2023/05/30 07:37:16;;;;;;;8.68;3.45;;;13.80;91.70;;;;;;5077968;28;20036;-87
2023/05/30 07:39:44;;;;;;;9.05;4.20;;;13.90;91.70;;;;;;5095108;28;20082;-87
2023/05/30 07:42:10;;;;;;;7.95;4.13;;;13.90;91.50;;;;;;5095023;28;20029;-88
2023/05/30 07:44:36;;;;;;;7.72;3.88;;;13.90;91.30;;;;;;5078651;28;20047;-88
2023/05/30 07:47:03;;;;;;;7.72;3.58;;;13.90;91.30;;;;;;5094930;28;20490;-88
2023/05/30 07:49:28;;;;;;;8.73;3.28;;;14.00;91.30;;;;;;5094311;28;20056;-89
2023/05/30 07:51:54;;;;;;;7.43;3.63;;;14.00;91.30;;;;;;5077398;28;20028;-88
2023/05/30 07:54:20;;;;;;;7.25;3.60;;;14.10;91.30;;;;;;5093942;28;20024;-88
2023/05/30 07:56:45;;;;;;;10.25;4.03;;;14.20;91.30;;;;;;5078153;28;20035;-88
2023/05/30 07:59:14;;;;;;;9.30;3.47;;;14.30;91.20;;;;;;5098347;28;20028;-88
2023/05/30 08:01:39;;;;;;;7.45;3.72;;;14.40;91.20;;;;;;5080991;28;20484;-87
2023/05/30 08:04:05;;;;;;;9.20;3.45;;;14.50;91.10;;;;;;5099099;28;20038;-88
2023/05/30 08:06:33;;;;;;;8.07;3.40;;;14.60;91.10;;;;;;5066482;28;20050;-88
2023/05/30 08:08:59;;;;;;;7.20;3.10;;;14.70;91.30;;;;;;5084283;28;20032;-84
2023/05/30 08:11:25;;;;;;;10.60;3.90;;;14.80;90.90;;;;;;5065297;28;20093;-88
2023/05/30 08:13:53;;;;;;;7.90;3.35;;;14.90;90.70;;;;;;5098051;28;20034;-86
2023/05/30 08:16:20;;;;;;;10.52;4.50;;;15.00;90.70;;;;;;5097611;28;20514;-87
2023/05/30 08:18:46;;;;;;;7.80;4.25;;;15.00;90.40;;;;;;5099191;28;20531;-89
2023/05/30 08:21:14;;;;;;;7.65;4.03;;;15.00;90.30;;;;;;5080531;28;20028;-87
2023/05/30 08:23:40;;;;;;;9.52;4.10;;;15.00;90.10;;;;;;5097739;28;20031;-88
2023/05/30 08:26:08;;;;;;;9.18;3.78;;;15.10;90.20;;;;;;5079940;28;20032;-89
2023/05/30 08:28:36;;;;;;;7.32;3.38;;;15.10;90.20;;;;;;5097967;28;20034;-89
2023/05/30 08:31:03;;;;;;;7.40;3.72;;;15.20;90.20;;;;;;5097171;28;20034;-87
2023/05/30 08:33:29;;;;;;;7.53;3.67;;;15.30;90.10;;;;;;5097280;28;20113;-88
2023/05/30 08:35:54;;;;;;;7.47;3.65;;;15.40;90.10;;;;;;5079650;28;20020;-86
2023/05/30 08:38:20;;;;;;;8.07;3.90;;;15.50;90.00;;;;;;5096193;28;20069;-88
2023/05/30 08:40:55;;;;;;;7.57;4.15;;;15.60;89.90;;;;;;5096396;28;20383;-88
2023/05/30 08:43:20;;;;;;;8.52;3.78;;;15.60;89.40;;;;;;5100597;28;20490;-87
2023/05/30 08:45:49;;;;;;;8.02;3.88;;;15.70;89.40;;;;;;5097373;28;20020;-87
2023/05/30 08:48:18;;;;;;;7.22;3.70;;;15.70;89.40;;;;;;5102821;28;20054;-88
2023/05/30 08:50:45;;;;;;;7.32;3.83;;;15.80;89.50;;;;;;5119348;28;20172;-88
2023/05/30 08:53:22;;;;;;;8.48;4.15;;;15.90;89.00;;;;;;5083726;28;20073;-87
2023/05/30 08:56:04;;;;;;;9.10;4.38;;;15.90;89.00;;;;;;5119768;28;20019;-89
2023/05/30 08:58:36;;;;;;;10.20;4.32;;;16.00;88.80;;;;;;5100751;28;20478;-89
2023/05/30 09:01:02;;;;;;;7.63;3.90;;;16.10;88.30;;;;;;5100510;28;20027;-85
2023/05/30 09:03:30;;;;;;;7.15;3.55;;;16.10;88.10;;;;;;5118018;28;20019;-87
2023/05/30 09:05:56;;;;;;;9.98;4.13;;;16.10;88.00;;;;;;5116461;27;20015;-86
2023/05/30 09:08:26;;;;;;;8.15;3.90;;;16.10;87.80;;;;;;5105687;28;20036;-86
2023/05/30 09:10:55;;;;;;;7.07;3.58;;;16.20;87.80;;;;;;5107349;28;20242;-88
2023/05/30 09:13:21;;;;;;;4.53;3.22;;;16.30;88.40;;;;;;5104876;28;20049;-87
2023/05/30 09:15:47;;;;;;;7.63;3.65;;;16.40;87.50;;;;;;5131704;28;20024;-88
2023/05/30 09:18:13;;;;;;;9.35;4.25;;;16.50;87.40;;;;;;5084436;28;20028;-87
2023/05/30 09:20:40;;;;;;;9.05;4.50;;;16.40;87.00;;;;;;5100603;28;20031;-89
2023/05/30 09:23:09;;;;;;;8.75;3.92;;;16.50;87.00;;;;;;5099484;28;20116;-87
2023/05/30 09:25:49;;;;;;;8.60;3.78;;;16.50;86.90;;;;;;5098811;28;20016;-88
2023/05/30 09:28:26;;;;;;;8.38;4.32;;;16.50;87.10;;;;;;5081877;28;20051;-86
2023/05/30 09:30:57;;;;;;;10.85;4.00;;;16.60;87.10;;;;;;5082485;28;20111;-88
2023/05/30 09:33:23;;;;;;;8.30;3.75;;;16.70;86.70;;;;;;5099612;28;20054;-86
2023/05/30 09:35:53;;;;;;;13.02;4.38;;;16.80;87.00;;;;;;5099186;28;20024;-89
2023/05/30 09:38:23;;;;;;;9.55;4.18;;;16.80;86.50;;;;;;5099219;28;20064;-88
2023/05/30 09:41:02;;;;;;;9.18;4.15;;;16.90;86.10;;;;;;5099442;28;20026;-87
2023/05/30 09:43:34;;;;;;;8.93;4.45;;;16.80;85.60;;;;;;5098805;28;20020;-87
2023/05/30 09:46:11;;;;;;;8.65;3.92;;;16.90;85.90;;;;;;5099601;28;20085;-88
2023/05/30 09:48:40;;;;;;;9.88;4.22;;;16.90;86.00;;;;;;5099465;28;20525;-88
2023/05/30 09:51:05;;;;;;;10.68;4.47;;;17.00;85.40;;;;;;5082543;28;20438;-88
2023/05/30 09:53:33;;;;;;;8.75;4.00;;;17.00;85.10;;;;;;5098245;28;20023;-87
2023/05/30 09:56:01;;;;;;;7.28;3.40;;;17.10;85.40;;;;;;5098576;28;20455;-88
2023/05/30 09:58:27;;;;;;;10.23;4.13;;;17.20;85.60;;;;;;5082466;28;20032;-87
2023/05/30 10:00:55;;;;;;;8.70;4.22;;;17.30;84.60;;;;;;5097536;28;20034;-88
2023/05/30 10:03:39;;;;;;;10.35;3.90;;;17.30;84.30;;;;;;5098095;28;20045;-88
2023/05/30 10:06:17;;;;;;;8.60;3.50;;;17.30;84.40;;;;;;5097957;28;20026;-88
2023/05/30 10:08:45;;;;;;;9.77;4.50;;;17.40;84.60;;;;;;5097891;28;20050;-87
2023/05/30 10:11:15;;;;;;;6.75;3.85;;;17.50;84.70;;;;;;5119186;28;20065;-87
2023/05/30 10:13:41;;;;;;;8.90;4.35;;;17.50;83.90;;;;;;5118718;28;20455;-86
2023/05/30 10:16:13;;;;;;;9.57;3.70;;;17.60;83.20;;;;;;5098456;28;20451;-86
2023/05/30 10:18:49;;;;;;;10.73;4.13;;;17.60;83.10;;;;;;5098104;28;20024;-85
2023/05/30 10:21:20;;;;;;;10.25;3.80;;;17.60;83.20;;;;;;5109221;28;20020;-84
2023/05/30 10:23:46;;;;;;;5.88;3.15;;;17.60;83.20;;;;;;5136925;28;20020;-85
2023/05/30 10:26:15;;;;;;;6.88;3.15;;;17.70;83.40;;;;;;5104443;27;20020;-87
2023/05/30 10:28:43;;;;;;;8.10;3.42;;;17.80;83.40;;;;;;5117088;28;20050;-85
2023/05/30 10:31:14;;;;;;;6.32;3.42;;;17.80;83.40;;;;;;5101739;28;20036;-88
2023/05/30 10:33:43;;;;;;;6.55;3.58;;;17.90;83.00;;;;;;5117774;28;20114;-89
2023/05/30 10:36:09;;;;;;;10.75;4.25;;;18.00;82.90;;;;;;5098661;28;20041;-89
2023/05/30 10:38:58;;;;;;;10.55;3.95;;;18.00;82.30;;;;;;5098944;28;20034;-88
2023/05/30 10:41:37;;;;;;;9.57;3.80;;;18.00;82.10;;;;;;5097609;28;20390;-88
2023/05/30 10:44:32;;;;;;;10.85;3.53;;;18.10;82.10;;;;;;5116853;28;20026;-88
2023/05/30 10:47:16;;;;;;;7.47;3.38;;;18.20;82.50;;;;;;5047237;28;20068;-88
2023/05/30 10:49:46;;;;;;;6.75;3.60;;;18.30;82.10;;;;;;5098068;28;20453;-87
2023/05/30 10:52:29;;;;;;;8.38;3.83;;;18.40;82.10;;;;;;5133822;27;20045;-86
2023/05/30 10:54:55;;;;;;;9.73;3.60;;;18.40;81.10;;;;;;5120372;27;20080;-87
2023/05/30 10:57:28;;;;;;;7.88;3.45;;;18.50;81.00;;;;;;5138843;27;20008;-84
2023/05/30 11:02:53;;;;;;;10.55;3.88;;;18.60;80.70;;;;;;5451832;22;20129;-88
2023/05/30 11:05:32;;;;;;;8.35;3.78;;;18.60;80.40;;;;;;4997865;28;20015;-87
2023/05/30 11:07:59;;;;;;;9.05;3.42;;;18.70;79.50;;;;;;5013818;28;20034;-87
2023/05/30 11:10:27;;;;;;;8.63;3.92;;;18.70;79.60;;;;;;5001924;28;20026;-89
2023/05/30 11:13:08;;;;;;;9.70;4.32;;;18.70;78.90;;;;;;5016532;28;20026;-88
2023/05/30 11:15:34;;;;;;;7.38;3.88;;;18.70;78.20;;;;;;4996172;28;20466;-89
2023/05/30 11:18:00;;;;;;;8.38;4.18;;;18.70;77.90;;;;;;5001637;28;20030;-88
2023/05/30 11:20:26;;;;;;;10.88;4.60;;;18.70;78.60;;;;;;5015360;28;20040;-87
2023/05/30 11:23:01;;;;;;;6.28;3.80;;;18.70;78.80;;;;;;4998473;28;20025;-87
2023/05/30 11:25:29;;;;;;;8.93;4.18;;;18.70;78.70;;;;;;4994316;28;20026;-88
2023/05/30 11:28:04;;;;;;;7.93;3.92;;;18.80;78.40;;;;;;4979005;28;20031;-88
2023/05/30 11:30:37;;;;;;;8.68;4.60;;;18.80;78.60;;;;;;4995647;28;20026;-89
2023/05/30 11:33:13;;;;;;;9.90;4.25;;;18.90;78.60;;;;;;5004217;28;20025;-87
2023/05/30 11:35:41;;;;;;;10.07;3.60;;;18.90;78.40;;;;;;5022286;28;20548;-88
2023/05/30 11:38:07;;;;;;;9.85;3.70;;;19.00;79.00;;;;;;5005011;28;20396;-88
2023/05/30 11:40:33;;;;;;;11.85;3.72;;;19.00;78.40;;;;;;5005620;28;20112;-88
2023/05/30 11:42:58;;;;;;;8.35;4.07;;;19.00;77.80;;;;;;5021789;28;20048;-87
2023/05/30 11:45:29;;;;;;;8.93;4.20;;;19.10;77.90;;;;;;5005452;28;20060;-88
2023/05/30 11:48:08;;;;;;;;;;;19.10;77.80;;;;;;4994435;28;20049;-89
2023/05/30 11:50:54;;;;;;;8.35;4.18;;;19.20;77.90;;;;;;5011256;28;19910;-88
2023/05/30 11:53:20;;;;;;;9.73;4.85;;;19.20;77.80;;;;;;4998730;28;20018;-87
2023/05/30 11:55:49;;;;;;;10.63;4.90;;;19.20;77.10;;;;;;5001247;28;20485;-87
2023/05/30 11:58:16;;;;;;;10.05;4.38;;;19.20;77.50;;;;;;5019862;28;20062;-88
2023/05/30 12:00:46;;;;;;;8.48;3.45;;;19.20;77.40;;;;;;5019874;28;20033;-88
2023/05/30 12:03:16;;;;;;;9.23;4.35;;;19.30;77.40;;;;;;4984663;28;20107;-89
2023/05/30 12:05:46;;;;;;;9.30;4.35;;;19.40;77.00;;;;;;5004401;28;20109;-88
2023/05/30 12:08:13;;;;;;;10.68;4.25;;;19.40;76.70;;;;;;4993092;28;20506;-88
2023/05/30 12:10:39;;;;;;;7.70;3.80;;;19.40;76.80;;;;;;5007781;28;20029;-88
2023/05/30 12:13:06;;;;;;;11.60;4.32;;;19.40;76.70;;;;;;4998859;28;20058;-89
2023/05/30 12:15:32;;;;;;;8.10;3.63;;;19.40;76.60;;;;;;5007303;28;20031;-90
2023/05/30 12:18:01;;;;;;;10.18;4.18;;;19.50;76.50;;;;;;4995865;28;20139;-88
2023/05/30 12:20:27;;;;;;;9.48;3.15;;;19.60;76.40;;;;;;4988838;28;20038;-89
2023/05/30 12:22:53;;;;;;;9.30;3.78;;;19.60;76.50;;;;;;5004101;28;20038;-89
2023/05/30 12:25:27;;;;;;;7.72;3.53;;;19.70;76.30;;;;;;4984041;28;20025;-88
2023/05/30 12:27:55;;;;;;;7.13;3.30;;;19.70;76.20;;;;;;4991060;28;20084;-89
2023/05/30 12:30:21;;;;;;;9.57;3.97;;;19.70;76.50;;;;;;5003104;28;20095;-87
2023/05/30 12:32:48;;;;;;;6.90;3.20;;;19.80;76.60;;;;;;4982231;28;20023;-88
2023/05/30 12:35:15;;;;;;;5.03;2.72;;;19.90;76.60;;;;;;4994780;28;20034;-88
2023/05/30 12:37:44;;;;;;;4.80;2.90;;;20.00;76.90;;;;;;4992919;28;20054;-85
2023/05/30 12:40:10;;;;;;;8.10;3.85;;;20.00;76.20;;;;;;5008580;28;20030;-86
2023/05/30 12:42:36;;;;;;;6.28;3.65;;;20.00;75.60;;;;;;4996411;28;20029;-87
2023/05/30 12:45:04;;;;;;;5.88;3.13;;;20.00;75.30;;;;;;5018797;28;20042;-86
2023/05/30 12:47:30;;;;;;;7.45;3.65;;;20.00;75.30;;;;;;5022157;28;20022;-86
2023/05/30 12:49:57;;;;;;;6.22;3.65;;;20.00;75.30;;;;;;5002874;28;20024;-86
2023/05/30 12:52:27;;;;;;;6.63;3.50;;;20.00;75.30;;;;;;5009422;28;20034;-87